Weather observations for the past three days for
Kalskag
Imperial (Metric)
Date Time (akdt) Wind (mph) Vis. (mi.) Weather Sky Cond. Temperature (ºF) Relative Humidity Wind Chill (°F) Heat Index (°F) Pressure Precipitation (in)
Air Dwpt 6 hour altimeter (in) sea level (mb) 1 hr 3 hr 6 hr
Max. Min.
10 11:56 Vrbl 3 10.00 Mostly Cloudy BKN025 45 32 61% 29.44 997.0
10 10:56 Calm 10.00 Fair CLR 41 32 70% 29.44 996.9
10 09:56 Calm 10.00 Fair CLR 39 33.1 39 24.1 79% 29.44 996.8
10 08:56 Vrbl 5 10.00 Fair CLR 35.1 32 89% 32 29.43 996.8
10 07:56 Calm 10.00 Fair CLR 28.9 28 96% 29.43 996.5
10 06:56 Calm 10.00 A Few Clouds FEW021 24.1 21.9 91% 29.43 996.5
10 05:56 Calm 10.00 Fair CLR 25 23 92% 29.41 996.1
10 04:56 Calm 10.00 Fair CLR 25 21.9 88% 29.41 996.1
10 03:56 Calm 10.00 Fair CLR 26.1 25 39 26.1 96% 29.42 996.2
10 02:56 Calm 10.00 Fair CLR 28 25 88% 29.41 995.9
10 01:56 Calm 10.00 A Few Clouds FEW040 34 32 92% 29.41 995.8
10 00:56 Calm 10.00 Mostly Cloudy BKN034 35.1 30.9 85% 29.41 995.8
09 23:56 W 5 10.00 Partly Cloudy SCT050 35.1 30.9 85% 32 29.4 995.8
09 22:56 Calm 10.00 Fair CLR 36 30 79% 29.4 995.7
09 21:56 NW 3 10.00 Mostly Cloudy SCT041 BKN050 39 30 48 37.9 70% 29.39 995.4
09 20:56 Vrbl 3 10.00 Fair CLR 42.1 30 62% 29.38 995.0
09 19:56 W 8 10.00 Partly Cloudy FEW046 SCT060 43 30.9 63% 39 29.39 995.2
09 18:56 Vrbl 5 10.00 Overcast BKN045 OVC055 43 30.9 63% 41 29.4 995.6
09 16:56 NW 6 10.00 Overcast FEW035 BKN043 OVC055 43 28 56% 40 29.41 995.8
09 15:56 Vrbl 5 G 16 7.00 Fair CLR 46 25 46.9 37 44% 44 29.41 996.0
09 14:56 Vrbl 7 10.00 Fair CLR 45 24.1 44% 42 29.42 996.3
09 13:56 Vrbl 5 10.00 A Few Clouds FEW080 44.1 25 47% 42 29.44 996.8
09 12:56 Vrbl 5 8.00 Mostly Cloudy BKN055 BKN070 44.1 27 51% 42 29.45 997.2
09 11:56 Calm 10.00 Overcast SCT045 OVC065 41 25 53% 29.46 997.6
09 10:56 Calm 10.00 Mostly Cloudy BKN065 37.9 24.1 57% 29.47 998.1
09 09:56 SE 3 10.00 Overcast BKN065 OVC100 37.9 25 37.9 28.9 60% 29.48 998.3
09 08:56 Calm 10.00 Mostly Cloudy BKN100 34 25 70% 29.49 998.8
09 07:56 Calm 10.00 Overcast FEW065 OVC090 30.9 26.1 82% 29.5 999.1
09 06:56 W 3 10.00 Partly Cloudy SCT090 30.9 24.1 76% 29.51 999.5
09 05:56 Calm 10.00 Overcast OVC080 32 24.1 73% 29.53 999.9
09 04:56 W 6 10.00 Overcast OVC070 30.9 25 79% 26 29.54 1000.4
09 03:56 Calm 10.00 Mostly Cloudy BKN075 30 24.1 45 30 79% 29.56 1001.2
09 02:56 Calm 10.00 Fair CLR 30.9 24.1 76% 29.58 1001.7
09 01:56 Vrbl 3 10.00 Fair CLR 35.1 23 61% 29.59 1002.2
09 00:56 Vrbl 6 10.00 Fair CLR 37 24.1 59% 33 29.61 1002.7
08 23:56 N 6 10.00 Fair CLR 37.9 24.1 57% 34 29.62 1003.2
08 22:56 Vrbl 6 10.00 Fair CLR 41 24.1 51% 38 29.63 1003.6
08 21:56 Vrbl 3 10.00 Fair CLR 45 24.1 48 44.1 44% 29.64 1003.9
08 20:56 Vrbl 6 10.00 Overcast OVC060 48 24.1 39% 46 29.66 1004.4
08 19:56 Vrbl 6 10.00 Mostly Cloudy BKN055 46.9 24.1 41% 45 29.68 1005.2
08 18:56 Vrbl 7 10.00 Fair CLR 46 24.1 42% 43 29.7 1005.9
08 17:56 N 8 10.00 Fair CLR 45 21.9 40% 41 29.73 1006.8
08 16:56 N 9 8.00 Fair CLR 45 23 42% 41 29.75 1007.6
08 15:56 N 8 9.00 Fair CLR 44.1 21.9 45 32 41% 40 29.78 1008.4
08 14:56 N 9 G 16 10.00 Fair CLR 42.1 21.9 45% 37 29.8 1009.1
08 13:56 Vrbl 6 10.00 Mostly Cloudy BKN039 42.1 23 47% 39 29.82 1009.7
08 12:56 Calm 10.00 Partly Cloudy SCT039 39.9 21.9 49% 29.83 1010.3
08 11:56 Vrbl 7 8.00 Partly Cloudy SCT041 37.9 21.9 52% 33 29.85 1010.8
08 10:56 N 8 10.00 Fair CLR 35.1 19.9 54% 29 29.87 1011.4
08 09:56 N 10 9.00 Fair CLR 32 19.9 32 26.1 61% 24 29.88 1011.8
08 08:56 Vrbl 5 9.00 Light Snow SCT040 OVC050 28 19.9 72% 24 29.89 1012.3
08 07:56 N 6 10.00 Fair CLR 28 19 69% 22 29.9 1012.6
08 06:56 N 5 10.00 Fair CLR 26.1 19 75% 21 29.91 1013.1
08 05:56 Vrbl 6 10.00 Fair CLR 28 19.9 72% 22 29.92 1013.4
08 04:56 N 6 10.00 Fair CLR 28 21 75% 22 29.93 1013.6
08 03:56 N 7 10.00 Fair CLR 28.9 19.9 39 28.9 69% 23 29.94 1014.0
08 02:56 Vrbl 7 10.00 Fair CLR 30 18 61% 24 29.95 1014.4
08 01:56 NE 7 10.00 Fair CLR 30.9 18 59% 25 29.95 1014.4
08 00:56 Vrbl 6 10.00 Fair CLR 30.9 19 61% 26 29.95 1014.4
07 23:56 NE 5 10.00 Fair CLR 33.1 18 54% 29 29.96 1014.4
07 22:56 NE 6 10.00 Fair CLR 35.1 19.9 54% 31 29.96 1014.6
07 21:56 N 8 10.00 Partly Cloudy SCT060 39 19 43 39 45% 34 29.95 1014.4
07 20:56 N 5 10.00 Fair CLR 42.1 17.1 36% 40 29.95 1014.4
07 19:56 N 8 10.00 Fair CLR 43 16 34% 39 29.96 1014.7
07 18:56 N 10 9.00 Fair CLR 43 18 37% 38 29.97 1015.0
07 17:56 N 8 6.00 Fair with Haze CLR 42.1 18 38% 38 29.98 1015.3
07 16:56 N 8 10.00 Fair CLR 42.1 19.9 41% 38 30 1015.9
07 15:56 N 9 G 16 10.00 Fair CLR 41 19.9 43 33.1 43% 36 30.01 1016.3
07 14:56 Vrbl 7 9.00 Fair CLR 41 19.9 43% 37 30.02 1016.6
07 13:56 N 7 9.00 A Few Clouds FEW042 39.9 21 47% 36 30.03 1017.0
07 12:56 Vrbl 5 9.00 Mostly Cloudy BKN038 39.9 21.9 49% 37 30.04 1017.2
Date Time (akdt) Wind (mph) Vis. (mi.) Weather Sky Cond. Air Dwpt Max. Min. Relative Humidity Wind Chill (°F) Heat Index (°F) altimeter (in) sea level (mb) 1 hr 3 hr 6 hr
6 hour
Temperature (ºF) Pressure Precipitation (in)